createdAt,value
2017-03-28T00:00:18.728Z,75.72
2017-03-28T00:00:59.231Z,75.87
2017-03-28T00:01:39.747Z,75.91
2017-03-28T00:02:20.261Z,76.29
2017-03-28T00:03:00.780Z,76.16
2017-03-28T00:03:41.298Z,76.73
2017-03-28T00:04:21.795Z,76.73
2017-03-28T00:05:02.314Z,76.44
2017-03-28T00:05:42.812Z,76.44
2017-03-28T00:06:23.339Z,76.35
2017-03-28T00:07:03.847Z,76.44
2017-03-28T00:07:44.357Z,76.73
2017-03-28T00:08:24.851Z,76.73
2017-03-28T00:09:05.359Z,76.92
2017-03-28T00:09:45.864Z,76.92
2017-03-28T00:10:26.363Z,76.92
2017-03-28T00:11:06.875Z,76.25
2017-03-28T00:11:47.391Z,76.54
2017-03-28T00:12:27.919Z,76.44
2017-03-28T00:13:08.439Z,76.63
2017-03-28T00:13:48.960Z,76.06
2017-03-28T00:14:29.461Z,75.91
2017-03-28T00:15:09.969Z,75.87
2017-03-28T00:15:50.482Z,76.25
2017-03-28T00:16:31.006Z,75.53
2017-03-28T00:17:11.509Z,75.87
2017-03-28T00:17:52.027Z,76.2
2017-03-28T00:18:32.521Z,75.62
2017-03-28T00:19:13.058Z,76.2
2017-03-28T00:19:53.556Z,75.81
2017-03-28T00:20:34.064Z,75.91
2017-03-28T00:21:14.598Z,76.1
2017-03-28T00:21:55.086Z,75.81
2017-03-28T00:22:35.601Z,75.81
2017-03-28T00:23:16.106Z,75.91
2017-03-28T00:23:56.614Z,75.72
2017-03-28T00:24:37.119Z,75.81
2017-03-28T00:25:17.636Z,75.81
2017-03-28T00:25:58.158Z,75.91
2017-03-28T00:26:38.663Z,75.81
2017-03-28T00:27:19.162Z,75.91
2017-03-28T00:27:59.670Z,75.78
2017-03-28T00:28:40.178Z,75.87
2017-03-28T00:29:20.693Z,75.91
2017-03-28T00:30:01.207Z,76.06
2017-03-28T00:30:41.737Z,75.53
2017-03-28T00:31:22.277Z,75.53
2017-03-28T00:32:02.766Z,75.62
2017-03-28T00:32:43.308Z,75.43
2017-03-28T00:33:23.822Z,75.15
2017-03-28T00:34:04.328Z,75.53
2017-03-28T00:34:44.831Z,74.96
2017-03-28T00:35:25.341Z,74.96
2017-03-28T00:36:05.841Z,75.15
2017-03-28T00:36:46.363Z,74.77
2017-03-28T00:37:26.850Z,75.15
2017-03-28T00:38:07.360Z,75.34
2017-03-28T00:38:47.868Z,75.24
2017-03-28T00:39:28.379Z,75.15
2017-03-28T00:40:08.881Z,75.05
2017-03-28T00:40:49.402Z,74.96
2017-03-28T00:41:29.915Z,75.05
2017-03-28T00:42:10.443Z,74.29
2017-03-28T00:42:50.991Z,74.67
2017-03-28T00:43:31.484Z,74.58
2017-03-28T00:44:12.005Z,74.77
2017-03-28T00:46:06.064Z,75.15
2017-03-28T00:46:46.513Z,75.62
2017-03-28T00:47:27.016Z,76.01
2017-03-28T00:48:07.534Z,75.62
2017-03-28T00:48:48.044Z,76.25
2017-03-28T00:49:28.558Z,76.63
2017-03-28T00:50:09.067Z,76.57
2017-03-28T00:50:49.570Z,76.63
2017-03-28T00:51:30.074Z,77.2
2017-03-28T00:52:10.585Z,77.3
2017-03-28T00:52:51.100Z,77.77
2017-03-28T00:53:31.611Z,77.87
2017-03-28T00:54:12.105Z,78.34
2017-03-28T00:54:52.624Z,78.06
2017-03-28T00:55:33.210Z,78.53
2017-03-28T00:56:13.683Z,79.01
2017-03-28T00:56:54.172Z,78.72
2017-03-28T00:57:34.689Z,79.11
2017-03-28T00:58:15.198Z,79.86
2017-03-28T00:58:55.722Z,80.05
2017-03-28T00:59:36.248Z,80.34
2017-03-28T01:00:16.731Z,80.63
2017-03-28T01:00:57.244Z,80.34
2017-03-28T01:01:37.749Z,81.2
2017-03-28T01:02:18.273Z,81.48
2017-03-28T01:02:58.777Z,81.48
2017-03-28T01:03:39.301Z,81.77
2017-03-28T01:04:19.815Z,82.05
2017-03-28T01:05:00.311Z,82.29
2017-03-28T01:05:40.833Z,82.29
2017-03-28T01:06:21.331Z,82.68
2017-03-28T01:07:01.848Z,82.96
2017-03-28T01:07:42.374Z,83.53
2017-03-28T01:08:22.894Z,83.62
2017-03-28T01:09:03.402Z,83.34
2017-03-28T01:09:43.923Z,84.1
2017-03-28T01:10:24.441Z,84.48
2017-03-28T01:11:04.955Z,84.39
2017-03-28T01:11:45.464Z,84.39
2017-03-28T01:12:25.973Z,84.67
2017-03-28T01:13:06.479Z,85.15
2017-03-28T01:13:47.011Z,84.67
2017-03-28T01:14:27.510Z,85.19
2017-03-28T01:15:08.016Z,85.15
2017-03-28T01:15:48.512Z,85.24
2017-03-28T01:16:29.030Z,85.34
2017-03-28T01:17:09.541Z,85.81
2017-03-28T01:17:50.041Z,85.72
2017-03-28T01:18:30.536Z,85.62
2017-03-28T01:19:11.028Z,85.53
2017-03-28T01:19:51.527Z,85.81
2017-03-28T01:20:32.051Z,85.62
2017-03-28T01:21:12.550Z,86
2017-03-28T01:21:53.064Z,86.67
2017-03-28T01:22:33.566Z,86.47
2017-03-28T01:23:14.090Z,86.67
2017-03-28T01:23:54.591Z,86.86
2017-03-28T01:24:35.104Z,86.57
2017-03-28T01:25:15.618Z,86.57
2017-03-28T01:25:56.144Z,87.24
2017-03-28T01:26:36.648Z,87.43
2017-03-28T01:27:17.172Z,87.05
2017-03-28T01:27:57.687Z,86.76
2017-03-28T01:28:38.195Z,86.95
2017-03-28T01:29:18.710Z,87.14
2017-03-28T01:29:59.215Z,87.05
2017-03-28T01:30:39.712Z,87.05
2017-03-28T01:31:20.230Z,87.05
2017-03-28T01:32:00.739Z,86.95
2017-03-28T01:32:41.249Z,87.14
2017-03-28T01:33:21.776Z,86.76
2017-03-28T01:34:02.309Z,87.62
2017-03-28T01:34:42.835Z,87.24
2017-03-28T01:35:23.337Z,87.52
2017-03-28T01:36:03.856Z,87.81
2017-03-28T01:36:44.370Z,87.52
2017-03-28T01:37:24.877Z,87.9
2017-03-28T01:38:05.379Z,87.9
2017-03-28T01:38:45.894Z,88
2017-03-28T01:39:26.396Z,88.47
2017-03-28T01:40:06.907Z,88.47
2017-03-28T01:40:47.411Z,88.28
2017-03-28T01:41:27.925Z,88.28
2017-03-28T01:42:08.427Z,88.28
2017-03-28T01:42:48.948Z,88.38
2017-03-28T01:43:29.465Z,88.47
2017-03-28T01:44:09.987Z,88.47
2017-03-28T01:44:50.493Z,88.47
2017-03-28T01:45:31.023Z,88.47
2017-03-28T01:46:11.523Z,88.09
2017-03-28T01:46:52.039Z,88.67
2017-03-28T01:47:32.554Z,88.76
2017-03-28T01:48:13.058Z,88.38
2017-03-28T01:48:53.560Z,88.76
2017-03-28T01:49:34.062Z,88.95
2017-03-28T01:50:14.575Z,88.85
2017-03-28T01:50:55.085Z,88.76
2017-03-28T01:51:35.584Z,88.85
2017-03-28T01:52:16.074Z,88.85
2017-03-28T01:52:56.584Z,88.85
2017-03-28T01:53:37.102Z,88.38
2017-03-28T01:54:17.618Z,88.28
2017-03-28T01:54:58.123Z,88.09
2017-03-28T01:55:38.646Z,88.38
2017-03-28T01:56:19.178Z,88.09
2017-03-28T01:56:59.677Z,88.67
2017-03-28T01:57:40.182Z,88.67
2017-03-28T01:58:20.712Z,88.95
2017-03-28T01:59:01.212Z,88.85
2017-03-28T01:59:41.726Z,88.38
2017-03-28T02:00:22.229Z,89
2017-03-28T02:01:02.745Z,88.9
2017-03-28T02:01:43.259Z,88.85
2017-03-28T02:02:23.786Z,88.67
2017-03-28T02:03:04.301Z,88.33
2017-03-28T02:03:44.809Z,88.71
2017-03-28T02:04:25.318Z,88.52
2017-03-28T02:05:05.815Z,88.38
2017-03-28T02:05:46.307Z,88.09
2017-03-28T02:06:26.814Z,88.47
2017-03-28T02:07:07.358Z,88.28
2017-03-28T02:07:47.838Z,88.57
2017-03-28T02:08:28.355Z,88.8
2017-03-28T02:09:08.859Z,88.95
2017-03-28T02:09:49.363Z,88.57
2017-03-28T02:10:29.883Z,89
2017-03-28T02:11:10.415Z,89.23
2017-03-28T02:11:50.938Z,88.95
2017-03-28T02:12:31.440Z,89.42
2017-03-28T02:13:11.959Z,89.42
2017-03-28T02:13:52.474Z,89.42
2017-03-28T02:14:32.979Z,89.8
2017-03-28T02:15:13.481Z,90.09
2017-03-28T02:15:54.006Z,91.13
2017-03-28T02:16:34.510Z,91.52
2017-03-28T02:17:15.011Z,91.8
2017-03-28T02:17:55.519Z,91.8
2017-03-28T02:18:36.031Z,92.56
2017-03-28T02:19:16.538Z,93.04
2017-03-28T02:19:57.056Z,93.04
2017-03-28T02:20:37.604Z,93.23
2017-03-28T02:21:18.116Z,93.32
2017-03-28T02:21:58.626Z,93.89
2017-03-28T02:22:39.130Z,94.37
2017-03-28T02:23:19.639Z,94.46
2017-03-28T02:24:00.127Z,94.46
2017-03-28T02:24:40.647Z,94.93
2017-03-28T02:25:21.151Z,95.12
2017-03-28T02:26:01.676Z,96.08
2017-03-28T02:26:42.177Z,95.89
2017-03-28T02:27:22.691Z,95.89
2017-03-28T02:28:03.196Z,96.08
2017-03-28T02:28:43.714Z,96.36
2017-03-28T02:29:24.206Z,96.17
2017-03-28T02:30:04.732Z,97.31
2017-03-28T02:30:45.257Z,96.93
2017-03-28T02:31:25.766Z,97.6
2017-03-28T02:32:06.293Z,97.69
2017-03-28T02:32:46.798Z,97.78
2017-03-28T02:33:27.302Z,98.93
2017-03-28T02:34:07.818Z,99.02
2017-03-28T02:34:48.323Z,98.93
2017-03-28T02:35:28.859Z,99.11
2017-03-28T02:36:09.326Z,99.97
2017-03-28T02:36:49.858Z,99.99
2017-03-28T02:37:30.374Z,99.99
2017-03-28T02:38:10.892Z,99.99
2017-03-28T02:38:51.412Z,99.99
2017-03-28T02:39:31.929Z,99.99
2017-03-28T02:40:12.444Z,99.99
2017-03-28T02:40:52.944Z,99.99
2017-03-28T02:41:33.470Z,99.99
2017-03-28T02:42:13.993Z,99.99
2017-03-28T02:42:54.478Z,99.99
2017-03-28T02:43:34.998Z,99.99
2017-03-28T02:44:15.516Z,99.99
2017-03-28T02:44:56.045Z,99.99
2017-03-28T02:45:36.569Z,99.99
2017-03-28T02:46:17.080Z,99.99
2017-03-28T02:46:57.588Z,99.99
2017-03-28T02:47:38.097Z,99.99
2017-03-28T02:48:18.583Z,99.99
2017-03-28T02:48:59.115Z,99.99
2017-03-28T02:49:39.588Z,99.99
2017-03-28T02:50:20.109Z,99.99
2017-03-28T02:51:00.620Z,99.99
2017-03-28T02:51:41.134Z,99.99
2017-03-28T02:52:21.661Z,99.99
2017-03-28T02:53:02.205Z,99.99
2017-03-28T02:53:42.703Z,99.99
2017-03-28T02:54:23.219Z,99.99
2017-03-28T02:55:03.722Z,99.99
2017-03-28T02:55:44.232Z,99.99
2017-03-28T02:56:24.754Z,99.99
2017-03-28T02:57:05.268Z,99.99
2017-03-28T02:57:45.771Z,99.99
2017-03-28T02:58:26.287Z,99.99
2017-03-28T02:59:06.801Z,99.99
2017-03-28T02:59:47.309Z,99.99
2017-03-28T03:00:27.807Z,99.99
2017-03-28T03:01:08.311Z,99.99
2017-03-28T03:01:48.831Z,99.99
2017-03-28T03:02:29.344Z,99.99
2017-03-28T03:03:09.864Z,99.99
2017-03-28T03:03:50.385Z,99.99
2017-03-28T03:04:30.882Z,99.99
2017-03-28T03:05:11.415Z,99.99
2017-03-28T03:05:51.909Z,99.99
2017-03-28T03:06:32.410Z,99.99
2017-03-28T03:07:12.927Z,99.99
2017-03-28T03:07:53.420Z,99.99
2017-03-28T03:08:33.927Z,99.99
2017-03-28T03:09:14.446Z,99.99
2017-03-28T03:09:54.958Z,99.99
2017-03-28T03:10:35.491Z,99.99
2017-03-28T03:11:15.994Z,99.99
2017-03-28T03:11:56.514Z,99.99
2017-03-28T03:12:36.999Z,99.99
2017-03-28T03:13:17.496Z,99.99
2017-03-28T03:13:58.002Z,99.99
2017-03-28T03:14:38.518Z,99.99
2017-03-28T03:15:19.008Z,99.99
2017-03-28T03:15:59.517Z,99.99
2017-03-28T03:16:40.031Z,99.99
2017-03-28T03:17:20.553Z,99.99
2017-03-28T03:18:01.055Z,99.99
2017-03-28T03:18:41.589Z,99.99
2017-03-28T03:19:22.118Z,99.99
2017-03-28T03:20:02.694Z,99.99
2017-03-28T03:20:43.207Z,99.99
2017-03-28T03:21:23.751Z,99.99
2017-03-28T03:22:04.316Z,99.99
2017-03-28T03:22:44.808Z,99.99
2017-03-28T03:23:25.329Z,99.99
2017-03-28T03:24:05.844Z,99.99
2017-03-28T03:24:46.339Z,99.99
2017-03-28T03:25:26.841Z,99.99
2017-03-28T03:26:07.364Z,99.99
2017-03-28T03:26:47.900Z,99.99
2017-03-28T03:27:28.432Z,99.99
2017-03-28T03:28:08.906Z,99.99
2017-03-28T03:28:49.457Z,99.99
2017-03-28T03:29:30.027Z,99.99
2017-03-28T03:30:10.469Z,99.99
2017-03-28T03:30:50.989Z,99.99
2017-03-28T03:31:31.528Z,99.99
2017-03-28T03:32:12.056Z,99.99
2017-03-28T03:32:52.554Z,99.99
2017-03-28T03:33:33.077Z,99.99
2017-03-28T03:34:13.623Z,99.99
2017-03-28T03:34:54.113Z,99.99
2017-03-28T03:35:34.627Z,99.99
2017-03-28T03:36:15.138Z,99.99
2017-03-28T03:36:55.667Z,99.99
2017-03-28T03:37:36.178Z,99.99
2017-03-28T03:38:16.709Z,99.99
2017-03-28T03:38:57.279Z,99.99
2017-03-28T03:39:37.807Z,99.99
2017-03-28T03:40:18.328Z,99.99
2017-03-28T03:40:58.853Z,99.99
2017-03-28T03:41:39.337Z,99.99
2017-03-28T03:42:19.885Z,99.99
2017-03-28T03:43:00.447Z,99.99
2017-03-28T03:43:40.966Z,99.99
2017-03-28T03:44:21.494Z,99.99
2017-03-28T03:45:02.045Z,99.99
2017-03-28T03:45:42.565Z,99.99
2017-03-28T03:46:23.113Z,99.99
2017-03-28T03:47:03.787Z,99.99
2017-03-28T03:47:44.301Z,99.99
2017-03-28T03:48:24.892Z,99.99
2017-03-28T03:49:05.408Z,99.99
2017-03-28T03:49:45.927Z,99.99
2017-03-28T03:50:26.420Z,99.99
2017-03-28T03:51:06.931Z,99.99
2017-03-28T03:51:47.464Z,99.99
2017-03-28T03:52:28.025Z,99.99
2017-03-28T03:53:08.564Z,99.99
2017-03-28T03:53:50.108Z,99.99
2017-03-28T03:54:30.681Z,99.99
2017-03-28T03:55:11.144Z,99.99
2017-03-28T03:55:51.653Z,99.99
2017-03-28T03:56:32.193Z,99.99
2017-03-28T03:57:12.681Z,99.99
2017-03-28T03:57:53.204Z,99.99
2017-03-28T03:58:33.695Z,99.99
2017-03-28T03:59:14.211Z,99.99
2017-03-28T03:59:54.725Z,99.99
2017-03-28T04:00:35.241Z,99.99
2017-03-28T04:01:15.761Z,99.99
2017-03-28T04:01:56.298Z,99.99
2017-03-28T04:02:36.857Z,99.99
2017-03-28T04:03:17.368Z,99.99
2017-03-28T04:03:57.954Z,99.99
2017-03-28T04:04:38.465Z,99.99
2017-03-28T04:05:18.974Z,99.99
2017-03-28T04:05:59.672Z,99.99
2017-03-28T04:06:40.199Z,99.99
2017-03-28T04:07:20.727Z,99.99
2017-03-28T04:08:01.192Z,99.99
2017-03-28T04:08:41.690Z,99.99
2017-03-28T04:09:22.201Z,99.99
2017-03-28T04:10:02.707Z,99.99
2017-03-28T04:10:43.216Z,99.99
2017-03-28T04:11:23.723Z,99.99
2017-03-28T04:12:04.217Z,99.99
2017-03-28T04:12:44.732Z,99.99
2017-03-28T04:13:25.295Z,99.99
2017-03-28T04:14:05.777Z,99.99
2017-03-28T04:14:46.339Z,99.99
2017-03-28T04:15:26.829Z,99.99
2017-03-28T04:16:07.371Z,99.99
2017-03-28T04:16:47.930Z,99.99
2017-03-28T04:17:28.468Z,99.99
2017-03-28T04:18:09.026Z,99.99
2017-03-28T04:18:49.558Z,99.99
2017-03-28T04:19:30.135Z,99.99
2017-03-28T04:20:10.629Z,99.99
2017-03-28T04:20:51.154Z,99.99
2017-03-28T04:21:31.654Z,99.99
2017-03-28T04:22:12.168Z,99.99
2017-03-28T04:22:52.677Z,99.99
2017-03-28T04:23:33.218Z,99.99
2017-03-28T04:24:13.723Z,99.99
2017-03-28T04:24:54.297Z,99.99
2017-03-28T04:25:34.820Z,99.99
2017-03-28T04:26:15.322Z,99.99
2017-03-28T04:26:55.811Z,99.99
2017-03-28T04:27:36.359Z,99.99
2017-03-28T04:28:16.898Z,99.99
2017-03-28T04:28:57.447Z,99.99
2017-03-28T04:29:37.931Z,99.99
2017-03-28T04:30:18.541Z,99.99
2017-03-28T04:30:59.096Z,99.99
2017-03-28T04:31:39.693Z,99.99
2017-03-28T04:32:20.216Z,99.99
2017-03-28T04:33:00.778Z,99.99
2017-03-28T04:33:41.381Z,99.99
2017-03-28T04:34:22.062Z,99.99
2017-03-28T04:35:02.694Z,99.99
2017-03-28T04:35:43.090Z,99.99
2017-03-28T04:36:23.612Z,99.99
2017-03-28T04:37:04.141Z,99.99
2017-03-28T04:37:44.632Z,99.99
2017-03-28T04:38:25.155Z,99.99
2017-03-28T04:39:05.743Z,99.99
2017-03-28T04:39:46.339Z,99.99
2017-03-28T04:40:26.822Z,99.99
2017-03-28T04:41:07.299Z,99.99
2017-03-28T04:41:47.825Z,99.99
2017-03-28T04:42:28.353Z,99.99
2017-03-28T04:43:08.901Z,99.99
2017-03-28T04:43:49.439Z,99.99
2017-03-28T04:44:29.919Z,99.99
2017-03-28T04:45:10.464Z,99.99
2017-03-28T04:45:51.113Z,99.99
2017-03-28T04:46:31.508Z,99.99
2017-03-28T04:47:12.065Z,99.99
2017-03-28T04:47:52.539Z,99.99
2017-03-28T04:48:33.081Z,99.99
2017-03-28T04:49:13.639Z,99.99
2017-03-28T04:49:54.188Z,99.99
2017-03-28T04:50:34.847Z,99.99
2017-03-28T04:51:15.339Z,99.99
2017-03-28T04:51:55.864Z,99.99
2017-03-28T04:52:36.351Z,99.99
2017-03-28T04:53:16.921Z,99.99
2017-03-28T04:53:57.405Z,99.99
2017-03-28T04:54:37.905Z,99.99
2017-03-28T04:55:18.435Z,99.99
2017-03-28T04:55:58.983Z,99.99
2017-03-28T04:56:39.506Z,99.99
2017-03-28T04:57:20.044Z,99.99
2017-03-28T04:58:00.632Z,99.99
2017-03-28T04:58:41.142Z,99.99
2017-03-28T04:59:21.642Z,99.99
2017-03-28T05:00:02.090Z,99.99
2017-03-28T05:00:42.670Z,99.99
2017-03-28T05:01:23.107Z,99.99
2017-03-28T05:02:03.675Z,99.99
2017-03-28T05:02:44.194Z,99.99
2017-03-28T05:03:24.716Z,99.99
2017-03-28T05:04:05.199Z,99.99
2017-03-28T05:04:45.733Z,99.99
2017-03-28T05:05:26.260Z,99.99
2017-03-28T05:06:06.771Z,99.99
2017-03-28T05:06:47.309Z,99.99
2017-03-28T05:07:27.851Z,99.99
2017-03-28T05:08:08.392Z,99.99
2017-03-28T05:08:48.965Z,99.99
2017-03-28T05:09:29.449Z,99.99
2017-03-28T05:10:10.012Z,99.99
2017-03-28T05:10:50.549Z,99.99
2017-03-28T05:11:31.076Z,99.99
2017-03-28T05:12:11.585Z,99.99
2017-03-28T05:12:52.153Z,99.99
2017-03-28T05:13:32.660Z,99.99
2017-03-28T05:14:13.209Z,99.99
2017-03-28T05:14:53.703Z,99.99
2017-03-28T05:15:34.257Z,99.99
2017-03-28T05:16:14.795Z,99.99
2017-03-28T05:16:55.277Z,99.99
2017-03-28T05:17:35.801Z,99.99
2017-03-28T05:18:16.322Z,99.99
2017-03-28T05:18:56.862Z,99.99
2017-03-28T05:19:37.406Z,99.99
2017-03-28T05:20:17.986Z,99.99
2017-03-28T05:20:58.545Z,99.99
2017-03-28T05:21:39.093Z,99.99
2017-03-28T05:22:19.631Z,99.99
2017-03-28T05:23:00.169Z,99.99
2017-03-28T05:23:40.702Z,99.99
2017-03-28T05:24:21.207Z,99.99
2017-03-28T05:25:01.712Z,99.99
2017-03-28T05:25:42.207Z,99.99
2017-03-28T05:26:22.717Z,99.99
2017-03-28T05:27:03.481Z,99.99
2017-03-28T05:27:43.995Z,99.99
2017-03-28T05:28:24.530Z,99.99
2017-03-28T05:29:05.041Z,99.99
2017-03-28T05:29:45.559Z,99.99
2017-03-28T05:30:26.053Z,99.99
2017-03-28T05:31:06.574Z,99.99
2017-03-28T05:31:47.078Z,99.99
2017-03-28T05:32:27.619Z,99.99
2017-03-28T05:33:08.105Z,99.99
2017-03-28T05:33:48.605Z,99.99
2017-03-28T05:34:29.146Z,99.99
2017-03-28T05:35:09.637Z,99.99
2017-03-28T05:35:50.133Z,99.99
2017-03-28T05:36:30.637Z,99.99
2017-03-28T05:37:11.164Z,99.99
2017-03-28T05:37:51.674Z,99.99
2017-03-28T05:38:32.188Z,99.99
2017-03-28T05:39:12.708Z,99.99
2017-03-28T05:39:53.250Z,99.99
2017-03-28T05:40:33.818Z,99.99
2017-03-28T05:41:14.269Z,99.99
2017-03-28T05:41:54.792Z,99.99
2017-03-28T05:42:35.320Z,99.99
2017-03-28T05:43:15.869Z,99.99
2017-03-28T05:43:56.376Z,99.99
2017-03-28T05:44:36.908Z,99.99
2017-03-28T05:45:17.384Z,99.99
2017-03-28T05:45:57.900Z,99.99
2017-03-28T05:46:38.423Z,99.99
2017-03-28T05:47:18.912Z,99.99
2017-03-28T05:47:59.432Z,99.99
2017-03-28T05:48:39.920Z,99.99
2017-03-28T05:49:20.410Z,99.99
2017-03-28T05:50:01.084Z,99.99
2017-03-28T05:50:41.880Z,99.99
2017-03-28T05:51:22.386Z,99.99
2017-03-28T05:52:02.921Z,99.99
2017-03-28T05:52:43.418Z,99.99
2017-03-28T05:53:23.928Z,99.99
2017-03-28T05:54:04.459Z,99.99
2017-03-28T05:54:44.999Z,99.99
2017-03-28T05:55:25.497Z,99.99
2017-03-28T05:56:05.993Z,99.99
2017-03-28T05:56:46.521Z,99.99
2017-03-28T05:57:27.026Z,99.99
2017-03-28T05:58:07.520Z,99.99
2017-03-28T05:58:48.048Z,99.99
2017-03-28T05:59:28.553Z,99.99
2017-03-28T06:00:09.068Z,99.99
2017-03-28T06:00:49.591Z,99.99
2017-03-28T06:01:30.108Z,99.99
2017-03-28T06:02:10.625Z,99.99
2017-03-28T06:02:51.133Z,99.99
2017-03-28T06:03:31.631Z,99.99
2017-03-28T06:04:12.152Z,99.99
2017-03-28T06:04:52.678Z,99.99
2017-03-28T06:05:33.167Z,99.99
2017-03-28T06:06:13.693Z,99.99
2017-03-28T06:06:54.222Z,99.99
2017-03-28T06:07:34.723Z,99.99
2017-03-28T06:08:15.232Z,99.99
2017-03-28T06:08:55.740Z,99.99
2017-03-28T06:09:36.220Z,99.99
2017-03-28T06:10:16.736Z,99.99
2017-03-28T06:10:57.248Z,99.99
2017-03-28T06:11:37.790Z,99.99
2017-03-28T06:12:18.294Z,99.99
2017-03-28T06:12:58.808Z,99.99
2017-03-28T06:13:39.372Z,99.99
2017-03-28T06:14:19.863Z,99.99
2017-03-28T06:15:00.416Z,99.99
2017-03-28T06:15:40.920Z,99.99
2017-03-28T06:16:21.387Z,99.99
2017-03-28T06:17:02.041Z,99.99
2017-03-28T06:17:42.684Z,99.99
2017-03-28T06:18:23.180Z,99.99
2017-03-28T06:19:03.686Z,99.99
2017-03-28T06:19:44.195Z,99.99
2017-03-28T06:20:25.279Z,99.99
2017-03-28T06:21:05.816Z,99.99
2017-03-28T06:21:46.313Z,99.99
2017-03-28T06:22:26.862Z,99.99
2017-03-28T06:23:07.383Z,99.99
2017-03-28T06:23:47.903Z,99.99
2017-03-28T06:24:28.435Z,99.99
2017-03-28T06:25:08.939Z,99.99
2017-03-28T06:25:49.459Z,99.99
2017-03-28T06:26:30.061Z,99.99
2017-03-28T06:27:10.584Z,99.99
2017-03-28T06:27:51.092Z,99.99
2017-03-28T06:28:31.600Z,99.99
2017-03-28T06:29:12.114Z,99.99
2017-03-28T06:29:52.654Z,99.99
2017-03-28T06:30:33.157Z,99.99
2017-03-28T06:31:13.736Z,99.99
2017-03-28T06:31:54.269Z,99.99
2017-03-28T06:32:34.786Z,99.99
2017-03-28T06:33:15.272Z,99.99
2017-03-28T06:33:55.786Z,99.99
2017-03-28T06:34:36.307Z,99.99
2017-03-28T06:35:16.820Z,99.99
2017-03-28T06:35:57.327Z,99.99
2017-03-28T06:36:37.841Z,99.99
2017-03-28T06:37:18.363Z,99.99
2017-03-28T06:37:58.861Z,99.99
2017-03-28T06:38:39.361Z,99.99
2017-03-28T06:39:19.863Z,99.99
2017-03-28T06:40:00.384Z,99.99
2017-03-28T06:40:40.891Z,99.99
2017-03-28T06:41:21.455Z,99.99
2017-03-28T06:42:01.966Z,99.99
2017-03-28T06:42:42.469Z,99.99
2017-03-28T06:43:22.990Z,99.99
2017-03-28T06:44:03.502Z,99.99
2017-03-28T06:44:44.011Z,99.99
2017-03-28T06:45:24.525Z,99.99
2017-03-28T06:46:05.014Z,99.99
2017-03-28T06:46:45.532Z,99.99
2017-03-28T06:47:26.072Z,99.99
2017-03-28T06:48:06.533Z,99.99
2017-03-28T06:48:47.035Z,99.99
2017-03-28T06:49:27.552Z,99.99
2017-03-28T06:50:08.057Z,99.99
2017-03-28T06:50:48.584Z,99.99
2017-03-28T06:51:29.100Z,99.99
2017-03-28T06:52:09.596Z,99.99
2017-03-28T06:52:50.103Z,99.99
2017-03-28T06:53:30.586Z,99.99
2017-03-28T06:54:11.114Z,99.99
2017-03-28T06:54:51.623Z,99.99
2017-03-28T06:55:32.136Z,99.99
2017-03-28T06:56:12.661Z,99.99
2017-03-28T06:56:53.140Z,99.99
2017-03-28T06:57:33.643Z,99.99
2017-03-28T06:58:14.140Z,99.99
2017-03-28T06:58:54.631Z,99.99
2017-03-28T06:59:35.139Z,99.99
2017-03-28T07:00:15.737Z,99.99
2017-03-28T07:00:56.197Z,99.99
2017-03-28T07:01:36.710Z,99.99
2017-03-28T07:02:17.314Z,99.99
2017-03-28T07:02:57.820Z,99.99
2017-03-28T07:03:38.460Z,99.99
2017-03-28T07:04:18.940Z,99.99
2017-03-28T07:04:59.455Z,99.99
2017-03-28T07:05:39.956Z,99.99
2017-03-28T07:06:20.460Z,99.99
2017-03-28T07:07:00.972Z,99.99
2017-03-28T07:07:41.482Z,99.99
2017-03-28T07:08:22.004Z,98.6
2017-03-28T07:09:02.518Z,99.99
2017-03-28T07:09:43.020Z,99.99
2017-03-28T07:10:23.537Z,99.99
2017-03-28T07:11:04.022Z,99.99
2017-03-28T07:11:44.540Z,99.99
2017-03-28T07:12:25.061Z,99.99
2017-03-28T07:13:05.577Z,99.99
2017-03-28T07:13:46.097Z,99.99
2017-03-28T07:14:26.596Z,99.99
2017-03-28T07:15:07.146Z,99.99
2017-03-28T07:15:47.619Z,99.99
2017-03-28T07:16:28.130Z,98.83
2017-03-28T07:17:08.662Z,99.99
2017-03-28T07:17:49.159Z,99.99
2017-03-28T07:18:29.667Z,99.99
2017-03-28T07:19:10.185Z,99.99
2017-03-28T07:19:50.715Z,99.99
2017-03-28T07:20:31.241Z,99.99
2017-03-28T07:21:11.761Z,99.99
2017-03-28T07:21:52.295Z,99.99
2017-03-28T07:22:32.760Z,99.99
2017-03-28T07:23:13.275Z,99.99
2017-03-28T07:23:53.792Z,99.99
2017-03-28T07:24:34.293Z,99.99
2017-03-28T07:25:14.801Z,99.99
2017-03-28T07:25:55.308Z,99.99
2017-03-28T07:26:35.819Z,99.99
2017-03-28T07:27:16.314Z,99.99
2017-03-28T07:27:56.846Z,99.99
2017-03-28T07:28:37.333Z,99.99
2017-03-28T07:29:17.858Z,99.99
2017-03-28T07:29:58.366Z,99.99
2017-03-28T07:30:38.887Z,99.99
2017-03-28T07:31:19.426Z,99.99
2017-03-28T07:31:59.923Z,99.99
2017-03-28T07:32:40.438Z,99.99
2017-03-28T07:33:20.960Z,99.99
2017-03-28T07:34:01.495Z,99.99
2017-03-28T07:34:41.969Z,99.99
2017-03-28T07:35:22.503Z,99.99
2017-03-28T07:36:03.007Z,99.99
2017-03-28T07:36:43.499Z,99.99
2017-03-28T07:37:24.011Z,99.99
2017-03-28T07:38:04.537Z,99.99
2017-03-28T07:38:45.058Z,99.99
2017-03-28T07:39:25.574Z,99.99
2017-03-28T07:40:06.104Z,99.99
2017-03-28T07:40:46.623Z,99.99
2017-03-28T07:41:27.168Z,99.32
2017-03-28T07:42:07.648Z,99.46
2017-03-28T07:42:48.183Z,99.03
2017-03-28T07:43:28.683Z,98.08
2017-03-28T07:44:09.207Z,97.99
2017-03-28T07:44:49.713Z,97.89
2017-03-28T07:45:30.235Z,97.41
2017-03-28T07:46:10.803Z,96.94
2017-03-28T07:46:51.304Z,95.79
2017-03-28T07:47:31.807Z,96.27
2017-03-28T07:48:12.310Z,95.51
2017-03-28T07:48:52.819Z,95.12
2017-03-28T07:49:33.355Z,95.32
2017-03-28T07:50:13.840Z,94.46
2017-03-28T07:50:54.352Z,95.03
2017-03-28T07:51:34.866Z,93.98
2017-03-28T07:52:15.403Z,93.65
2017-03-28T07:52:55.904Z,93.17
2017-03-28T07:53:36.423Z,93.55
2017-03-28T07:54:16.962Z,92.5
2017-03-28T07:54:57.450Z,91.74
2017-03-28T07:55:37.963Z,91.84
2017-03-28T07:56:18.492Z,91.65
2017-03-28T07:56:59.014Z,91.17
2017-03-28T07:57:39.519Z,90.7
2017-03-28T07:58:20.038Z,90.5
2017-03-28T07:59:00.554Z,89.84
2017-03-28T07:59:41.074Z,89.65
2017-03-28T08:00:21.588Z,89.07
2017-03-28T08:01:02.111Z,88.7
2017-03-28T08:01:42.644Z,87.79
2017-03-28T08:02:23.133Z,87.4
2017-03-28T08:03:03.662Z,86.45
2017-03-28T08:03:44.217Z,86.26
2017-03-28T08:04:24.693Z,86.07
2017-03-28T08:05:05.210Z,85.31
2017-03-28T08:05:45.716Z,84.45
2017-03-28T08:06:26.226Z,84.26
2017-03-28T08:07:06.912Z,83.59
2017-03-28T08:07:47.422Z,82.92
2017-03-28T08:08:27.947Z,82.83
2017-03-28T08:09:08.458Z,82.45
2017-03-28T08:09:49.039Z,81.82
2017-03-28T08:10:29.539Z,81.73
2017-03-28T08:11:10.048Z,81.15
2017-03-28T08:11:50.572Z,80.2
2017-03-28T08:12:31.087Z,80.2
2017-03-28T08:13:11.602Z,79.53
2017-03-28T08:13:52.110Z,78.86
2017-03-28T08:14:32.624Z,78.49
2017-03-28T08:15:13.165Z,77.62
2017-03-28T08:15:53.656Z,77.82
2017-03-28T08:16:34.170Z,76.14
2017-03-28T08:17:14.671Z,76.23
2017-03-28T08:17:55.198Z,75.76
2017-03-28T08:18:35.718Z,75.37
2017-03-28T08:19:16.226Z,75.18
2017-03-28T08:19:56.748Z,74.8
2017-03-28T08:20:37.255Z,74.13
2017-03-28T08:21:17.775Z,73.85
2017-03-28T08:21:58.305Z,73.12
2017-03-28T08:24:27.849Z,72.17
2017-03-28T08:25:08.358Z,72.26
2017-03-28T08:25:48.857Z,71.02
2017-03-28T08:26:29.375Z,71.12
2017-03-28T08:27:09.878Z,70.54
2017-03-28T08:27:50.383Z,70.54
2017-03-28T08:28:30.905Z,69.91
2017-03-28T08:29:11.426Z,70.01
2017-03-28T08:29:51.952Z,69.91
2017-03-28T08:30:32.447Z,69.82
2017-03-28T08:31:12.981Z,68.96
2017-03-28T08:31:53.481Z,68.86
2017-03-28T08:32:34.008Z,68.57
2017-03-28T08:33:14.501Z,68.19
2017-03-28T08:33:55.008Z,68.04
2017-03-28T08:34:35.506Z,67.84
2017-03-28T08:35:16.029Z,67.36
2017-03-28T08:35:56.565Z,66.79
2017-03-28T08:36:37.087Z,66.6
2017-03-28T08:37:17.559Z,66.13
2017-03-28T08:37:58.103Z,65.55
2017-03-28T08:38:38.620Z,64.98
2017-03-28T08:39:19.132Z,64.88
2017-03-28T08:39:59.689Z,63.93
2017-03-28T08:40:40.179Z,63.57
2017-03-28T08:41:20.729Z,63.39
2017-03-28T08:42:01.244Z,62.62
2017-03-28T08:42:41.758Z,62.71
2017-03-28T08:43:22.288Z,61.38
2017-03-28T08:44:02.801Z,60.8
2017-03-28T08:44:43.313Z,60.33
2017-03-28T08:45:23.854Z,60.06